Time;durP1;ratioP1;P1;durP2;ratioP2;P2;SDS_P1;SDS_P2;PMS_P1;PMS_P2;Temp;Humidity;BMP_temperature;BMP_pressure;BME280_temperature;BME280_humidity;BME280_pressure;Samples;Min_cycle;Max_cycle;Signal;HPM_P1;HPM_P2
2021/12/18 00:01:48;;;;;;;27.23;17.92;;;6.50;99.90;;;;;;5066880;28;20310;-80
2021/12/18 00:04:15;;;;;;;25.35;17.35;;;6.20;99.90;;;;;;5058240;28;20237;-81
2021/12/18 00:06:43;;;;;;;24.98;16.38;;;6.30;99.90;;;;;;5059800;28;20206;-80
2021/12/18 00:09:09;;;;;;;26.95;18.63;;;6.40;99.90;;;;;;5056060;28;20223;-80
2021/12/18 00:11:36;;;;;;;25.73;18.40;;;6.50;99.90;;;;;;5056252;28;20298;-80
2021/12/18 00:14:03;;;;;;;27.50;19.00;;;6.40;99.90;;;;;;5057768;28;20221;-80
2021/12/18 00:16:30;;;;;;;26.88;17.88;;;6.30;99.90;;;;;;5066504;28;20301;-80
2021/12/18 00:18:58;;;;;;;25.25;16.90;;;6.30;99.90;;;;;;5058570;28;20690;-80
2021/12/18 00:21:28;;;;;;;25.73;17.35;;;6.50;99.90;;;;;;5057871;28;20214;-80
2021/12/18 00:23:56;;;;;;;25.45;17.70;;;6.10;99.90;;;;;;5057504;28;20213;-80
2021/12/18 00:26:23;;;;;;;28.05;17.75;;;6.00;99.90;;;;;;5057554;28;20215;-79
2021/12/18 00:28:50;;;;;;;23.90;16.65;;;6.40;99.90;;;;;;5057346;28;20730;-79
2021/12/18 00:31:17;;;;;;;23.27;15.70;;;6.20;99.90;;;;;;5058609;28;20206;-81
2021/12/18 00:33:44;;;;;;;24.95;16.50;;;6.40;99.90;;;;;;5057917;28;20214;-81
2021/12/18 00:36:11;;;;;;;23.25;17.10;;;6.40;99.90;;;;;;5057935;28;20297;-80
2021/12/18 00:38:39;;;;;;;22.80;16.48;;;6.30;99.90;;;;;;5059070;28;20253;-81
2021/12/18 00:41:16;;;;;;;25.70;16.52;;;6.20;99.90;;;;;;5060423;28;20218;-81
2021/12/18 00:46:24;;;;;;;21.65;15.57;;;6.20;99.90;;;;;;5057459;28;20220;-79
2021/12/18 00:48:51;;;;;;;25.50;16.95;;;5.90;99.90;;;;;;5056988;28;20336;-80
2021/12/18 00:51:18;;;;;;;26.23;16.67;;;6.00;99.90;;;;;;5057973;28;20210;-80
2021/12/18 00:53:45;;;;;;;24.45;15.07;;;5.90;99.90;;;;;;5055388;28;20201;-79
2021/12/18 00:56:13;;;;;;;24.42;16.55;;;5.90;99.90;;;;;;5057451;28;20217;-80
2021/12/18 00:58:40;;;;;;;25.45;17.38;;;5.90;99.90;;;;;;5057454;28;20675;-80
2021/12/18 01:01:09;;;;;;;27.60;17.65;;;5.90;99.90;;;;;;5070336;28;20298;-79
2021/12/18 01:03:37;;;;;;;24.48;16.55;;;5.90;99.90;;;;;;5075082;28;20202;-80
2021/12/18 01:06:04;;;;;;;28.23;17.40;;;5.70;99.90;;;;;;5062316;28;20267;-80
2021/12/18 01:08:31;;;;;;;25.77;16.60;;;5.70;99.90;;;;;;5072925;28;20230;-80
2021/12/18 01:11:14;;;;;;;26.23;16.08;;;5.70;99.90;;;;;;5065782;28;20238;-80
2021/12/18 01:13:56;;;;;;;26.20;17.90;;;5.60;99.90;;;;;;5063285;28;20195;-79
2021/12/18 01:16:26;;;;;;;24.92;16.90;;;5.70;99.90;;;;;;5064279;28;20214;-80
2021/12/18 01:24:21;;;;;;;21.70;15.00;;;5.90;99.90;;;;;;5059293;28;20611;-80
2021/12/18 01:26:48;;;;;;;25.90;16.98;;;6.00;99.90;;;;;;5060212;28;20206;-80
2021/12/18 01:29:16;;;;;;;21.50;14.98;;;6.20;99.90;;;;;;5060252;28;20264;-81
2021/12/18 01:31:43;;;;;;;19.13;12.80;;;5.90;99.90;;;;;;5059426;28;20221;-80
2021/12/18 01:34:10;;;;;;;24.00;17.55;;;6.00;99.90;;;;;;5059513;28;20263;-81
2021/12/18 01:36:37;;;;;;;24.92;16.95;;;5.50;99.90;;;;;;5057276;28;20233;-79
2021/12/18 01:39:04;;;;;;;24.35;16.65;;;5.50;99.90;;;;;;5057360;28;20283;-80
2021/12/18 01:41:41;;;;;;;23.38;15.20;;;5.70;99.90;;;;;;5061342;28;20206;-80
2021/12/18 01:51:10;;;;;;;24.25;16.35;;;5.90;99.90;;;;;;5065745;28;20205;-79
2021/12/18 01:52:33;;;;;;;23.67;16.23;;;6.10;99.90;;;;;;5061364;28;20204;-80
2021/12/18 01:55:00;;;;;;;24.08;16.63;;;5.90;99.90;;;;;;5057790;28;20214;-80
2021/12/18 01:57:28;;;;;;;25.60;17.98;;;5.90;99.90;;;;;;5058307;28;20233;-81
2021/12/18 01:59:55;;;;;;;24.80;16.52;;;5.90;99.90;;;;;;5057886;28;20206;-80
2021/12/18 02:02:23;;;;;;;28.27;18.85;;;6.00;99.90;;;;;;5059458;28;20244;-80
2021/12/18 02:04:50;;;;;;;23.88;17.17;;;5.80;99.90;;;;;;5057762;28;20241;-80
2021/12/18 02:07:17;;;;;;;28.08;18.75;;;5.50;99.90;;;;;;5059144;28;20206;-80
2021/12/18 02:09:59;;;;;;;27.17;18.23;;;5.50;99.90;;;;;;5061146;28;20310;-80
2021/12/18 02:12:34;;;;;;;28.58;18.05;;;5.50;99.90;;;;;;5062839;28;20244;-80
2021/12/18 02:20:40;;;;;;;27.63;18.67;;;5.80;99.90;;;;;;5061887;28;20280;-79
2021/12/18 02:23:07;;;;;;;28.80;17.85;;;5.50;99.90;;;;;;5062616;28;20229;-79
2021/12/18 02:25:36;;;;;;;28.00;16.73;;;5.60;99.90;;;;;;5062660;28;20202;-79
2021/12/18 02:28:05;;;;;;;26.33;16.75;;;5.60;99.90;;;;;;5062663;28;20245;-79
2021/12/18 02:30:33;;;;;;;27.92;18.17;;;5.50;99.90;;;;;;5057255;28;20210;-80
2021/12/18 02:33:00;;;;;;;28.00;17.55;;;5.30;99.90;;;;;;5056629;28;20214;-81
2021/12/18 02:35:29;;;;;;;28.98;19.02;;;5.60;99.90;;;;;;5056235;28;20209;-79
2021/12/18 02:38:12;;;;;;;29.55;19.20;;;5.40;99.90;;;;;;5056728;28;20234;-80
2021/12/18 02:40:58;;;;;;;26.27;18.20;;;5.40;99.90;;;;;;5082394;22;20233;-86
2021/12/18 02:43:26;;;;;;;27.88;19.10;;;5.50;99.90;;;;;;5068997;28;20226;-85
2021/12/18 02:45:58;;;;;;;27.77;17.40;;;5.50;99.90;;;;;;5061554;28;20298;-84
2021/12/18 02:48:25;;;;;;;28.77;18.85;;;5.30;99.90;;;;;;5057976;28;20564;-84
2021/12/18 02:50:52;;;;;;;27.95;17.10;;;5.50;99.90;;;;;;5057646;28;20317;-84
2021/12/18 02:53:20;;;;;;;25.88;17.02;;;5.60;99.90;;;;;;5063844;28;20224;-84
2021/12/18 02:55:54;;;;;;;27.40;18.52;;;5.70;99.90;;;;;;5074537;28;20190;-87
2021/12/18 02:58:21;;;;;;;26.70;17.77;;;5.40;99.90;;;;;;5074100;28;20174;-87
2021/12/18 03:00:48;;;;;;;25.58;17.58;;;5.50;99.90;;;;;;5066366;28;20249;-86
2021/12/18 03:03:16;;;;;;;26.95;18.27;;;5.10;99.90;;;;;;5070244;28;20206;-86
2021/12/18 03:05:50;;;;;;;24.60;17.75;;;4.70;99.90;;;;;;5069520;28;20570;-85
2021/12/18 03:08:32;;;;;;;24.83;16.48;;;5.20;99.90;;;;;;5066492;28;20213;-87
2021/12/18 03:22:38;;;;;;;23.83;15.48;;;5.20;99.90;;;;;;5069814;28;20240;-86
2021/12/18 03:25:00;;;;;;;27.70;16.88;;;5.10;99.90;;;;;;5068889;28;20625;-86
2021/12/18 03:27:29;;;;;;;27.40;17.63;;;5.10;99.90;;;;;;5068225;28;20190;-87
2021/12/18 03:29:56;;;;;;;28.33;17.63;;;5.20;99.90;;;;;;5066109;28;20230;-87
2021/12/18 03:32:24;;;;;;;28.50;18.13;;;5.30;99.90;;;;;;5065640;28;20635;-86
2021/12/18 03:34:52;;;;;;;27.40;17.60;;;5.40;99.90;;;;;;5066601;28;20300;-85
2021/12/18 03:37:19;;;;;;;23.95;16.20;;;5.10;99.90;;;;;;5063676;28;20262;-83
2021/12/18 03:39:47;;;;;;;25.67;17.38;;;5.20;99.90;;;;;;5072680;28;20225;-83
2021/12/18 03:42:15;;;;;;;24.52;16.95;;;5.00;99.90;;;;;;5074861;28;20634;-87
2021/12/18 03:44:43;;;;;;;28.25;18.10;;;5.40;99.90;;;;;;5065216;28;20296;-86
2021/12/18 03:47:10;;;;;;;26.27;17.25;;;5.40;99.90;;;;;;5074805;28;20209;-86
2021/12/18 03:49:36;;;;;;;21.10;11.57;;;5.40;99.90;;;;;;5075142;28;20226;-87
2021/12/18 03:52:04;;;;;;;28.25;16.85;;;5.60;99.90;;;;;;5074520;28;20213;-86
2021/12/18 03:54:31;;;;;;;23.73;15.18;;;5.30;99.90;;;;;;5064838;28;20257;-86
2021/12/18 03:56:57;;;;;;;24.65;16.15;;;5.30;99.90;;;;;;5063971;28;20585;-86
2021/12/18 03:59:24;;;;;;;28.35;16.67;;;5.30;99.90;;;;;;5068393;28;20198;-86
2021/12/18 04:01:53;;;;;;;27.23;18.00;;;5.00;99.90;;;;;;5067094;28;20277;-85
2021/12/18 04:04:19;;;;;;;27.13;16.13;;;4.90;99.90;;;;;;5069835;28;20708;-86
2021/12/18 04:06:47;;;;;;;27.60;16.98;;;4.90;99.90;;;;;;5068697;28;20234;-86
2021/12/18 04:09:14;;;;;;;29.48;17.60;;;4.50;99.90;;;;;;5068607;28;20317;-87
2021/12/18 04:11:41;;;;;;;27.45;15.85;;;4.80;99.90;;;;;;5064661;28;20222;-86
2021/12/18 04:14:10;;;;;;;29.65;17.52;;;4.80;99.90;;;;;;5062492;28;20301;-86
2021/12/18 04:16:37;;;;;;;29.65;16.08;;;5.10;99.90;;;;;;5063533;28;20216;-87
2021/12/18 04:19:06;;;;;;;26.73;16.35;;;4.70;99.90;;;;;;5066436;28;20310;-87
2021/12/18 04:21:34;;;;;;;26.20;16.83;;;5.00;99.90;;;;;;5066687;28;20230;-87
2021/12/18 04:24:02;;;;;;;27.38;16.27;;;4.70;99.90;;;;;;5063406;28;20225;-86
2021/12/18 04:26:29;;;;;;;21.95;13.65;;;5.10;99.90;;;;;;5063946;28;20280;-87
2021/12/18 04:28:56;;;;;;;23.58;14.60;;;5.00;99.90;;;;;;5063245;28;20245;-87
2021/12/18 04:31:23;;;;;;;25.40;16.38;;;4.70;99.90;;;;;;5063542;28;20246;-86
2021/12/18 04:33:50;;;;;;;26.80;15.98;;;4.90;99.90;;;;;;5063475;28;20659;-87
2021/12/18 04:36:19;;;;;;;24.48;14.82;;;4.80;99.90;;;;;;5063458;28;20273;-86
2021/12/18 04:38:46;;;;;;;25.60;16.10;;;4.60;99.90;;;;;;5064622;28;20202;-87
2021/12/18 04:41:20;;;;;;;23.95;14.85;;;4.80;99.90;;;;;;5066476;28;20268;-87
2021/12/18 04:43:47;;;;;;;27.75;15.65;;;4.70;99.90;;;;;;5068012;28;20201;-85
2021/12/18 04:46:14;;;;;;;25.15;16.35;;;4.90;99.90;;;;;;5068574;28;20293;-86
2021/12/18 04:48:41;;;;;;;23.60;15.30;;;5.00;99.90;;;;;;5069909;28;20259;-85
2021/12/18 04:51:07;;;;;;;25.13;15.60;;;5.00;99.90;;;;;;5065983;28;20308;-87
2021/12/18 04:53:36;;;;;;;24.33;15.18;;;4.50;99.90;;;;;;5067021;28;20213;-86
2021/12/18 04:56:03;;;;;;;27.80;14.25;;;4.60;99.90;;;;;;5069318;28;20205;-86
2021/12/18 04:58:30;;;;;;;25.67;15.40;;;5.00;99.90;;;;;;5075095;28;20202;-84
2021/12/18 05:00:57;;;;;;;27.13;16.40;;;4.70;99.90;;;;;;5065265;28;20230;-85
2021/12/18 05:03:24;;;;;;;26.40;15.85;;;4.50;99.90;;;;;;5063802;28;20292;-85
2021/12/18 05:05:50;;;;;;;26.67;14.93;;;4.70;99.90;;;;;;5063116;28;20225;-86
2021/12/18 05:08:17;;;;;;;23.65;13.07;;;4.80;99.90;;;;;;5062858;28;20222;-86
2021/12/18 05:10:45;;;;;;;29.23;14.88;;;4.60;99.90;;;;;;5063635;28;20226;-84
2021/12/18 05:13:12;;;;;;;23.05;12.95;;;4.70;99.90;;;;;;5062009;28;20316;-86
2021/12/18 05:15:39;;;;;;;21.35;12.05;;;4.80;99.90;;;;;;5061744;28;20604;-86
2021/12/18 05:18:06;;;;;;;22.00;12.88;;;4.60;99.90;;;;;;5068021;28;20269;-83
2021/12/18 05:20:33;;;;;;;24.95;14.02;;;4.40;99.90;;;;;;5075429;28;20226;-84
2021/12/18 05:23:00;;;;;;;20.42;11.38;;;4.40;99.90;;;;;;5071150;28;20206;-85
2021/12/18 05:25:27;;;;;;;20.73;11.38;;;4.80;99.90;;;;;;5071963;28;20213;-84
2021/12/18 05:27:55;;;;;;;27.13;14.20;;;4.20;99.90;;;;;;5066338;28;20234;-85
2021/12/18 05:30:22;;;;;;;24.95;14.77;;;4.50;99.90;;;;;;5064290;28;20234;-86
2021/12/18 05:32:49;;;;;;;21.45;11.23;;;4.50;99.90;;;;;;5064380;28;20237;-85
2021/12/18 05:35:17;;;;;;;20.60;12.45;;;4.30;99.90;;;;;;5065818;28;20293;-84
2021/12/18 05:37:47;;;;;;;24.25;13.63;;;4.70;99.90;;;;;;5065254;28;20555;-86
2021/12/18 05:40:16;;;;;;;23.70;14.02;;;4.50;99.90;;;;;;5062373;28;20284;-86
2021/12/18 05:42:43;;;;;;;25.02;14.05;;;4.40;99.90;;;;;;5063319;28;20210;-86
2021/12/18 05:45:12;;;;;;;24.92;13.90;;;4.20;99.90;;;;;;5062063;28;20670;-86
2021/12/18 05:47:39;;;;;;;26.05;15.65;;;4.60;99.90;;;;;;5064441;28;20209;-86
2021/12/18 05:50:07;;;;;;;22.20;13.68;;;4.30;99.90;;;;;;5064094;28;20325;-86
2021/12/18 05:52:34;;;;;;;23.30;14.25;;;4.20;99.90;;;;;;5063127;28;20269;-87
2021/12/18 05:55:01;;;;;;;26.13;14.05;;;4.30;99.90;;;;;;5063562;28;20273;-85
2021/12/18 05:57:28;;;;;;;25.83;14.93;;;4.30;99.90;;;;;;5066224;28;20210;-85
2021/12/18 05:59:54;;;;;;;23.38;14.73;;;4.20;99.90;;;;;;5075645;28;20217;-82
2021/12/18 06:02:23;;;;;;;22.83;14.18;;;4.20;99.90;;;;;;5065386;28;20206;-86
2021/12/18 06:04:50;;;;;;;25.85;16.48;;;4.30;99.90;;;;;;5065215;28;20238;-86
2021/12/18 06:07:29;;;;;;;23.92;15.10;;;4.20;99.90;;;;;;5063586;28;20766;-85
2021/12/18 06:09:56;;;;;;;24.88;14.15;;;4.00;99.90;;;;;;5064656;28;20670;-85
2021/12/18 06:12:22;;;;;;;26.15;16.83;;;3.70;99.90;;;;;;5069614;28;20216;-87
2021/12/18 06:14:50;;;;;;;24.65;14.88;;;4.30;99.90;;;;;;5072060;28;20658;-86
2021/12/18 06:17:16;;;;;;;24.90;15.38;;;4.10;99.90;;;;;;5067226;28;20240;-85
2021/12/18 06:19:45;;;;;;;23.95;14.60;;;4.40;99.90;;;;;;5067024;28;20229;-85
2021/12/18 06:22:12;;;;;;;22.17;14.27;;;4.40;99.90;;;;;;5064891;28;20209;-86
2021/12/18 06:24:38;;;;;;;23.08;13.73;;;4.40;99.90;;;;;;5062070;28;20206;-85
2021/12/18 06:27:05;;;;;;;23.10;14.40;;;4.50;99.90;;;;;;5061521;28;20300;-86
2021/12/18 06:29:33;;;;;;;26.35;16.25;;;4.60;99.90;;;;;;5061430;28;20286;-86
2021/12/18 06:32:00;;;;;;;23.08;14.80;;;4.50;99.90;;;;;;5061677;28;20274;-86
2021/12/18 06:34:27;;;;;;;23.98;14.57;;;4.50;99.90;;;;;;5063374;28;20210;-84
2021/12/18 06:36:56;;;;;;;22.38;14.15;;;4.30;99.90;;;;;;5062115;28;20601;-85
2021/12/18 06:39:22;;;;;;;16.30;9.40;;;4.30;99.90;;;;;;5062611;28;20265;-85
2021/12/18 06:41:49;;;;;;;19.50;11.80;;;4.40;99.90;;;;;;5061737;28;20242;-86
2021/12/18 06:44:16;;;;;;;20.73;12.85;;;4.50;99.90;;;;;;5063024;28;20301;-84
2021/12/18 06:46:43;;;;;;;19.23;12.27;;;4.40;99.90;;;;;;5073588;28;20634;-85
2021/12/18 06:49:10;;;;;;;18.42;11.13;;;4.10;99.90;;;;;;5073681;28;20297;-85
2021/12/18 06:51:38;;;;;;;20.83;11.15;;;4.20;99.90;;;;;;5064533;28;20225;-84
2021/12/18 06:54:06;;;;;;;17.73;9.45;;;4.50;99.90;;;;;;5066733;28;20209;-82
2021/12/18 06:56:33;;;;;;;19.30;10.57;;;4.30;99.90;;;;;;5068902;28;20641;-82
2021/12/18 06:59:00;;;;;;;19.25;11.25;;;4.30;99.90;;;;;;5065319;28;20308;-86
2021/12/18 07:01:27;;;;;;;21.02;12.13;;;4.40;99.90;;;;;;5074376;28;20226;-87
2021/12/18 07:03:54;;;;;;;16.35;10.38;;;4.50;99.90;;;;;;5074628;28;20297;-88
2021/12/18 07:06:21;;;;;;;20.10;10.70;;;4.40;99.90;;;;;;5077913;28;20198;-84
2021/12/18 07:08:48;;;;;;;19.48;10.55;;;4.60;99.90;;;;;;5077484;28;20651;-82
2021/12/18 07:11:16;;;;;;;17.30;8.45;;;4.60;99.90;;;;;;5078801;28;20225;-83
2021/12/18 07:13:43;;;;;;;18.08;9.57;;;4.90;99.90;;;;;;5077550;28;20186;-82
2021/12/18 07:16:09;;;;;;;17.30;10.45;;;4.90;99.90;;;;;;5077062;28;20208;-81
2021/12/18 07:18:36;;;;;;;17.33;10.05;;;4.60;99.90;;;;;;5077225;28;20206;-81
2021/12/18 07:21:04;;;;;;;20.55;10.70;;;4.60;99.90;;;;;;5063153;28;20238;-81
2021/12/18 07:23:32;;;;;;;19.30;10.52;;;4.50;99.90;;;;;;5061193;28;20210;-81
2021/12/18 07:25:59;;;;;;;15.15;7.47;;;4.50;99.90;;;;;;5071944;28;20269;-80
2021/12/18 07:28:27;;;;;;;17.40;9.82;;;4.70;99.90;;;;;;5075617;28;20647;-79
2021/12/18 07:30:55;;;;;;;17.17;8.38;;;4.90;99.90;;;;;;5074429;28;20284;-81
2021/12/18 07:33:22;;;;;;;19.48;10.15;;;4.80;99.90;;;;;;5070792;28;20221;-81
2021/12/18 07:35:49;;;;;;;17.98;10.52;;;4.90;99.90;;;;;;5063577;28;20670;-79
2021/12/18 07:38:16;;;;;;;20.08;10.55;;;4.90;99.90;;;;;;5063451;28;20213;-79
2021/12/18 07:40:43;;;;;;;17.60;10.63;;;5.00;99.90;;;;;;5069109;28;20234;-78
2021/12/18 07:43:10;;;;;;;16.85;9.25;;;4.70;99.90;;;;;;5067253;28;20301;-78
2021/12/18 07:45:39;;;;;;;17.85;10.45;;;4.80;99.90;;;;;;5059287;28;20214;-78
2021/12/18 07:48:06;;;;;;;19.65;10.55;;;4.90;99.90;;;;;;5058904;28;20206;-78
2021/12/18 07:50:33;;;;;;;22.25;12.07;;;4.80;99.90;;;;;;5059413;28;20294;-78
2021/12/18 07:53:00;;;;;;;20.83;10.85;;;4.70;99.90;;;;;;5060746;28;20202;-81
2021/12/18 07:55:28;;;;;;;18.65;10.45;;;4.50;99.90;;;;;;5071075;28;20226;-81
2021/12/18 08:01:30;;;;;;;18.98;11.27;;;4.60;99.90;;;;;;5067278;28;20564;-82
2021/12/18 08:03:57;;;;;;;19.55;10.57;;;4.70;99.90;;;;;;5063018;28;20222;-81
2021/12/18 08:06:24;;;;;;;17.10;9.82;;;4.80;99.90;;;;;;5063744;28;20202;-80
2021/12/18 08:08:51;;;;;;;18.30;10.10;;;4.90;99.90;;;;;;5068194;28;20241;-81
2021/12/18 08:11:18;;;;;;;20.75;10.43;;;4.80;99.90;;;;;;5064984;28;20226;-82
2021/12/18 08:13:45;;;;;;;19.02;10.75;;;5.00;99.90;;;;;;5061775;28;20212;-82
2021/12/18 08:16:12;;;;;;;19.58;10.63;;;4.70;99.90;;;;;;5065091;28;20216;-79
2021/12/18 08:18:40;;;;;;;19.23;10.07;;;4.70;99.90;;;;;;5071448;28;20567;-79
2021/12/18 08:21:07;;;;;;;18.60;9.10;;;4.90;99.90;;;;;;5068114;28;20311;-81
2021/12/18 08:23:33;;;;;;;21.00;10.63;;;5.20;99.90;;;;;;5072312;28;20233;-80
2021/12/18 08:26:01;;;;;;;19.05;10.30;;;5.10;99.90;;;;;;5068682;28;20258;-80
2021/12/18 08:28:27;;;;;;;18.73;10.20;;;5.00;99.90;;;;;;5062114;28;20217;-80
2021/12/18 08:30:54;;;;;;;22.67;10.48;;;4.80;99.90;;;;;;5060303;28;20230;-82
2021/12/18 08:33:21;;;;;;;18.92;10.80;;;5.40;99.90;;;;;;5059247;28;20236;-79
2021/12/18 08:35:49;;;;;;;21.98;11.10;;;4.90;99.90;;;;;;5058716;28;20312;-79
2021/12/18 08:38:16;;;;;;;26.00;12.38;;;4.80;99.90;;;;;;5059750;28;20589;-82
2021/12/18 08:40:43;;;;;;;20.63;11.10;;;4.60;99.90;;;;;;5060430;28;20313;-81
2021/12/18 08:43:10;;;;;;;24.38;12.48;;;4.70;99.90;;;;;;5083673;22;20233;-79
2021/12/18 08:45:37;;;;;;;22.70;11.98;;;5.10;99.90;;;;;;5061019;28;20738;-78
2021/12/18 08:48:05;;;;;;;23.80;12.00;;;5.00;99.90;;;;;;5057988;28;20202;-79
2021/12/18 08:50:32;;;;;;;19.17;10.80;;;4.90;99.90;;;;;;5058817;28;20226;-77
2021/12/18 08:53:00;;;;;;;24.42;12.00;;;5.10;99.90;;;;;;5055104;28;20226;-77
2021/12/18 08:55:27;;;;;;;23.20;13.05;;;5.00;99.90;;;;;;5054390;28;20201;-77
2021/12/18 08:57:54;;;;;;;23.63;13.27;;;5.00;99.90;;;;;;5057422;28;20202;-76
2021/12/18 09:00:23;;;;;;;24.00;13.20;;;4.70;99.90;;;;;;5057472;28;20208;-79
2021/12/18 09:02:52;;;;;;;24.00;13.23;;;5.00;99.90;;;;;;5062795;28;20367;-78
2021/12/18 09:05:19;;;;;;;22.50;12.40;;;4.70;99.90;;;;;;5074080;28;20289;-82
2021/12/18 09:07:46;;;;;;;22.23;12.73;;;4.80;99.90;;;;;;5064639;28;20594;-82
2021/12/18 09:10:15;;;;;;;21.92;11.57;;;4.60;99.90;;;;;;5057621;28;20226;-83
2021/12/18 09:12:42;;;;;;;22.50;11.13;;;5.00;99.90;;;;;;5057514;28;20246;-83
2021/12/18 09:15:10;;;;;;;22.33;11.68;;;4.90;99.90;;;;;;5057545;28;20283;-83
2021/12/18 09:17:37;;;;;;;28.40;13.27;;;4.80;99.90;;;;;;5062989;28;20286;-81
2021/12/18 09:20:04;;;;;;;22.70;10.63;;;5.10;99.90;;;;;;5068840;28;20300;-81
2021/12/18 09:22:31;;;;;;;25.30;12.70;;;4.80;99.90;;;;;;5061257;28;20313;-81
2021/12/18 09:24:59;;;;;;;21.52;11.57;;;5.00;99.90;;;;;;5059517;28;20229;-82
2021/12/18 09:27:27;;;;;;;19.70;10.80;;;4.80;99.90;;;;;;5057779;28;20582;-82
2021/12/18 09:29:55;;;;;;;19.90;10.77;;;4.90;99.90;;;;;;5056882;28;20722;-83
2021/12/18 09:32:22;;;;;;;22.25;12.63;;;5.30;99.90;;;;;;5057990;28;20234;-84
2021/12/18 09:34:49;;;;;;;22.52;11.82;;;5.30;99.90;;;;;;5059880;28;20219;-84
2021/12/18 09:37:15;;;;;;;22.17;13.40;;;5.20;99.90;;;;;;5063527;28;20209;-79
2021/12/18 09:39:42;;;;;;;22.02;11.57;;;5.20;99.90;;;;;;5063774;28;20217;-80
2021/12/18 09:42:09;;;;;;;18.83;11.82;;;5.50;99.90;;;;;;5066413;28;20273;-79
2021/12/18 09:44:38;;;;;;;20.75;11.32;;;5.20;99.90;;;;;;5065285;28;20190;-81
2021/12/18 09:47:06;;;;;;;20.85;12.00;;;5.20;99.90;;;;;;5062656;28;20707;-83
2021/12/18 09:49:33;;;;;;;20.73;11.98;;;5.20;99.90;;;;;;5058739;28;20232;-83
2021/12/18 09:52:01;;;;;;;21.95;11.68;;;5.20;99.90;;;;;;5060812;28;20206;-81
2021/12/18 09:54:28;;;;;;;18.45;10.32;;;5.00;99.90;;;;;;5057588;28;20213;-79
2021/12/18 09:56:55;;;;;;;19.27;10.95;;;5.20;99.90;;;;;;5060103;28;20282;-80
2021/12/18 09:59:22;;;;;;;18.13;11.18;;;5.30;99.90;;;;;;5063367;28;20278;-80
2021/12/18 10:01:50;;;;;;;18.27;11.10;;;5.50;99.90;;;;;;5063372;28;20207;-81
2021/12/18 10:04:27;;;;;;;19.30;10.93;;;5.50;99.90;;;;;;5058553;28;20595;-79
2021/12/18 10:06:54;;;;;;;17.08;9.75;;;5.20;99.90;;;;;;5056522;28;20194;-78
2021/12/18 10:09:34;;;;;;;20.40;12.50;;;5.10;99.90;;;;;;5057127;28;20208;-79
2021/12/18 10:12:05;;;;;;;22.05;12.63;;;4.90;99.90;;;;;;5055166;28;20196;-79
2021/12/18 10:14:35;;;;;;;18.10;10.60;;;5.00;99.90;;;;;;5058342;28;20628;-79
2021/12/18 10:17:05;;;;;;;20.13;11.02;;;4.90;99.90;;;;;;5054791;28;20214;-79
2021/12/18 10:19:33;;;;;;;18.13;10.73;;;5.10;99.90;;;;;;5054754;28;20212;-80
2021/12/18 10:22:03;;;;;;;23.08;12.45;;;5.00;99.90;;;;;;5056490;28;20623;-78
2021/12/18 10:24:31;;;;;;;16.00;10.20;;;5.10;99.90;;;;;;5059699;28;20297;-79
2021/12/18 10:26:58;;;;;;;19.45;9.38;;;5.40;99.90;;;;;;5054380;28;20272;-79
2021/12/18 10:29:28;;;;;;;16.95;9.80;;;5.50;99.90;;;;;;5055319;28;20444;-79
2021/12/18 10:31:56;;;;;;;16.85;10.60;;;5.40;99.90;;;;;;5055425;28;20225;-79
2021/12/18 10:34:27;;;;;;;17.50;11.65;;;5.20;99.90;;;;;;5054108;28;20226;-79
2021/12/18 10:37:09;;;;;;;20.30;11.52;;;5.30;99.90;;;;;;5055920;28;20726;-77
2021/12/18 10:39:37;;;;;;;18.92;10.88;;;5.50;99.90;;;;;;5054636;28;20190;-78
2021/12/18 10:42:16;;;;;;;16.23;10.70;;;5.20;99.90;;;;;;5057120;28;20236;-78
2021/12/18 10:44:57;;;;;;;16.00;9.05;;;5.00;99.90;;;;;;5055463;28;20244;-78
2021/12/18 10:47:24;;;;;;;16.85;9.98;;;5.30;99.90;;;;;;5059446;28;20193;-78
2021/12/18 10:49:53;;;;;;;18.05;11.57;;;5.10;99.90;;;;;;5065822;28;20213;-80
2021/12/18 10:52:37;;;;;;;18.30;10.15;;;5.10;99.90;;;;;;5063384;28;20285;-81
2021/12/18 10:55:06;;;;;;;17.25;10.75;;;5.20;99.90;;;;;;5064413;28;20214;-79
2021/12/18 10:57:33;;;;;;;18.15;11.25;;;5.40;99.90;;;;;;5071564;28;20206;-79
2021/12/18 11:00:00;;;;;;;17.80;10.45;;;5.30;99.90;;;;;;5118207;22;20246;-79
2021/12/18 11:02:28;;;;;;;15.35;8.90;;;5.50;99.90;;;;;;5056198;28;20270;-79
2021/12/18 11:05:13;;;;;;;15.45;9.80;;;5.30;99.90;;;;;;5056640;28;20226;-79
2021/12/18 11:07:43;;;;;;;18.10;10.73;;;5.20;99.90;;;;;;5056187;28;20282;-79
2021/12/18 11:10:40;;;;;;;16.83;10.18;;;5.20;99.90;;;;;;5055510;28;20222;-80
2021/12/18 11:15:51;;;;;;;16.63;9.25;;;5.40;99.90;;;;;;5055382;28;20567;-80
2021/12/18 11:18:19;;;;;;;20.70;11.95;;;5.50;99.90;;;;;;5056096;28;20297;-78
2021/12/18 11:20:50;;;;;;;16.02;9.55;;;5.40;99.90;;;;;;5054976;28;20202;-81
2021/12/18 11:23:21;;;;;;;18.38;10.93;;;5.20;99.90;;;;;;5055180;28;20313;-80
2021/12/18 11:25:52;;;;;;;22.52;12.70;;;5.20;99.90;;;;;;5055363;28;20221;-80
2021/12/18 11:28:21;;;;;;;17.63;9.80;;;5.30;99.90;;;;;;5056015;28;20209;-78
2021/12/18 11:30:50;;;;;;;18.70;10.68;;;5.20;99.90;;;;;;5056321;28;20233;-80
2021/12/18 11:33:17;;;;;;;19.52;9.93;;;5.50;99.90;;;;;;5055895;28;20229;-80
2021/12/18 11:35:45;;;;;;;17.10;10.55;;;5.50;99.90;;;;;;5054968;28;20269;-80
2021/12/18 11:38:16;;;;;;;17.88;9.60;;;5.60;99.90;;;;;;5058088;28;20304;-81
2021/12/18 11:40:44;;;;;;;14.65;9.27;;;5.40;99.90;;;;;;5059129;28;20187;-80
2021/12/18 11:43:34;;;;;;;15.38;9.30;;;5.30;99.90;;;;;;5060233;28;20363;-80
2021/12/18 11:46:01;;;;;;;16.42;9.15;;;5.40;99.90;;;;;;5060736;28;20195;-81
2021/12/18 11:48:28;;;;;;;16.85;9.30;;;5.00;99.90;;;;;;5063968;28;20233;-80
2021/12/18 11:50:55;;;;;;;16.85;10.80;;;5.10;99.90;;;;;;5061267;28;20681;-81
2021/12/18 11:53:33;;;;;;;17.42;9.45;;;5.30;99.90;;;;;;5059198;28;20302;-80
2021/12/18 11:56:02;;;;;;;16.40;9.65;;;5.30;99.90;;;;;;5064160;28;20190;-79
2021/12/18 11:58:32;;;;;;;12.70;8.65;;;5.70;99.90;;;;;;5062707;28;20234;-81
2021/12/18 12:01:02;;;;;;;15.18;8.95;;;5.40;99.90;;;;;;5062314;28;20218;-83
2021/12/18 12:03:35;;;;;;;15.13;8.15;;;5.80;99.90;;;;;;5061861;28;20257;-80
2021/12/18 12:06:04;;;;;;;16.33;9.93;;;5.60;99.90;;;;;;5060488;28;20187;-79
2021/12/18 12:08:38;;;;;;;14.80;9.10;;;5.90;99.90;;;;;;5059241;28;20292;-79
2021/12/18 12:11:21;;;;;;;15.55;10.15;;;5.50;99.90;;;;;;5059744;28;20214;-80
2021/12/18 12:13:53;;;;;;;17.38;10.20;;;5.70;99.90;;;;;;5060330;28;20741;-81
2021/12/18 12:16:20;;;;;;;16.73;9.23;;;6.00;99.90;;;;;;5059430;28;20278;-80
2021/12/18 12:19:06;;;;;;;13.60;9.13;;;5.60;99.90;;;;;;5062165;28;20270;-79
2021/12/18 12:21:40;;;;;;;15.57;9.80;;;5.60;99.90;;;;;;5067331;28;20265;-80
2021/12/18 12:24:09;;;;;;;17.08;11.02;;;5.60;99.90;;;;;;5067202;28;20264;-79
2021/12/18 12:26:37;;;;;;;16.52;9.50;;;5.70;99.90;;;;;;5067655;28;20629;-80
2021/12/18 12:29:05;;;;;;;16.10;9.90;;;5.70;99.90;;;;;;5069958;28;20202;-80
2021/12/18 12:31:33;;;;;;;14.32;8.88;;;5.80;99.90;;;;;;5075205;28;20237;-80
2021/12/18 12:34:22;;;;;;;17.52;10.38;;;5.90;99.90;;;;;;5066994;28;20246;-80
2021/12/18 12:36:57;;;;;;;15.80;10.75;;;6.00;99.90;;;;;;5065174;28;20297;-80
2021/12/18 12:39:26;;;;;;;16.48;9.98;;;5.80;99.90;;;;;;5066511;28;20194;-80
2021/12/18 12:42:08;;;;;;;15.45;10.20;;;5.80;99.90;;;;;;5067474;28;20206;-79
2021/12/18 12:44:48;;;;;;;17.75;10.27;;;5.60;99.90;;;;;;5070349;28;20529;-79
2021/12/18 12:47:17;;;;;;;15.85;10.32;;;5.70;99.90;;;;;;5065328;28;20201;-79
2021/12/18 12:49:46;;;;;;;20.77;10.68;;;5.50;99.90;;;;;;5062724;28;20635;-79
2021/12/18 12:52:14;;;;;;;18.30;11.63;;;5.60;99.90;;;;;;5065951;28;20230;-80
2021/12/18 12:54:46;;;;;;;20.52;13.48;;;5.70;99.90;;;;;;5065871;28;20237;-80
2021/12/18 12:57:40;;;;;;;18.83;11.48;;;5.60;99.90;;;;;;5064719;28;20328;-79
2021/12/18 13:00:46;;;;;;;17.58;11.18;;;5.70;99.90;;;;;;5065090;28;20249;-80
2021/12/18 13:03:22;;;;;;;17.70;11.35;;;5.60;99.90;;;;;;5069866;28;20233;-80
2021/12/18 13:05:58;;;;;;;18.30;8.50;;;5.60;99.90;;;;;;5067135;28;20670;-80
2021/12/18 13:08:27;;;;;;;16.55;10.70;;;5.80;99.90;;;;;;5069104;28;20296;-84
2021/12/18 13:10:59;;;;;;;18.75;10.93;;;6.10;99.90;;;;;;5065612;28;20222;-83
2021/12/18 13:13:28;;;;;;;16.88;9.30;;;6.10;99.90;;;;;;5063763;28;20250;-82
2021/12/18 13:15:58;;;;;;;15.82;11.07;;;6.10;99.90;;;;;;5060684;28;20645;-84
2021/12/18 13:18:28;;;;;;;15.90;10.43;;;6.10;99.90;;;;;;5060226;28;20249;-82
2021/12/18 13:20:57;;;;;;;20.48;11.95;;;5.90;99.90;;;;;;5063717;28;20198;-81
2021/12/18 13:23:37;;;;;;;20.10;10.75;;;6.30;99.90;;;;;;5062148;28;20233;-79
2021/12/18 13:26:07;;;;;;;20.67;13.15;;;6.00;99.90;;;;;;5058987;28;20186;-82